METAR Data
IDs: Format: Raw Decoded Include TAF

Data at: 0201 UTC 01 Mar 2021

UUDL 010130Z 23002MPS 9999 OVC024 M05/M07 Q1020 R23/790434 NOSIG RMK QFE757